sensor_id;sensor_type;location;lat;lon;timestamp;temperature;humidity
23783;DHT22;12071;50.850;4.446;2023-05-02T00:00:38;11.50;99.90
23783;DHT22;12071;50.850;4.446;2023-05-02T00:03:04;11.50;99.90
23783;DHT22;12071;50.850;4.446;2023-05-02T00:05:30;11.60;99.90
23783;DHT22;12071;50.850;4.446;2023-05-02T00:07:56;11.60;99.90
23783;DHT22;12071;50.850;4.446;2023-05-02T00:10:22;11.70;99.90
23783;DHT22;12071;50.850;4.446;2023-05-02T00:12:47;11.70;99.90
23783;DHT22;12071;50.850;4.446;2023-05-02T00:15:13;11.70;99.90
23783;DHT22;12071;50.850;4.446;2023-05-02T00:17:40;11.70;99.90
23783;DHT22;12071;50.850;4.446;2023-05-02T00:20:08;11.70;99.90
23783;DHT22;12071;50.850;4.446;2023-05-02T00:22:34;11.70;99.90
23783;DHT22;12071;50.850;4.446;2023-05-02T00:25:00;11.80;99.90
23783;DHT22;12071;50.850;4.446;2023-05-02T00:27:26;11.90;99.90
23783;DHT22;12071;50.850;4.446;2023-05-02T00:29:53;11.80;99.90
23783;DHT22;12071;50.850;4.446;2023-05-02T00:32:19;11.80;99.90
23783;DHT22;12071;50.850;4.446;2023-05-02T00:34:45;11.80;99.90
23783;DHT22;12071;50.850;4.446;2023-05-02T00:37:11;11.80;99.90
23783;DHT22;12071;50.850;4.446;2023-05-02T00:39:37;11.80;99.90
23783;DHT22;12071;50.850;4.446;2023-05-02T00:42:03;11.80;99.90
23783;DHT22;12071;50.850;4.446;2023-05-02T00:44:29;11.70;99.90
23783;DHT22;12071;50.850;4.446;2023-05-02T00:46:55;11.70;99.90
23783;DHT22;12071;50.850;4.446;2023-05-02T00:49:22;11.80;99.90
23783;DHT22;12071;50.850;4.446;2023-05-02T00:51:47;11.80;99.90
23783;DHT22;12071;50.850;4.446;2023-05-02T00:54:13;11.90;99.90
23783;DHT22;12071;50.850;4.446;2023-05-02T00:56:39;12.10;99.90
23783;DHT22;12071;50.850;4.446;2023-05-02T00:59:06;12.10;99.90
23783;DHT22;12071;50.850;4.446;2023-05-02T01:01:59;12.20;99.90
23783;DHT22;12071;50.850;4.446;2023-05-02T01:13:25;11.70;99.90
23783;DHT22;12071;50.850;4.446;2023-05-02T01:15:53;11.80;99.90
23783;DHT22;12071;50.850;4.446;2023-05-02T01:18:22;11.60;99.90
23783;DHT22;12071;50.850;4.446;2023-05-02T01:20:54;11.60;99.90
23783;DHT22;12071;50.850;4.446;2023-05-02T01:23:27;11.70;99.90
23783;DHT22;12071;50.850;4.446;2023-05-02T01:31:11;11.70;99.90
23783;DHT22;12071;50.850;4.446;2023-05-02T01:33:38;11.60;99.90
23783;DHT22;12071;50.850;4.446;2023-05-02T01:36:05;11.70;99.90
23783;DHT22;12071;50.850;4.446;2023-05-02T01:38:32;11.60;99.90
23783;DHT22;12071;50.850;4.446;2023-05-02T01:40:59;11.50;99.90
23783;DHT22;12071;50.850;4.446;2023-05-02T01:43:32;11.50;99.90
23783;DHT22;12071;50.850;4.446;2023-05-02T01:45:59;11.50;99.90
23783;DHT22;12071;50.850;4.446;2023-05-02T01:48:27;11.60;99.90
23783;DHT22;12071;50.850;4.446;2023-05-02T01:50:54;11.50;99.90
23783;DHT22;12071;50.850;4.446;2023-05-02T01:53:20;11.70;99.90
23783;DHT22;12071;50.850;4.446;2023-05-02T01:55:48;11.50;99.90
23783;DHT22;12071;50.850;4.446;2023-05-02T01:58:16;11.70;99.90
23783;DHT22;12071;50.850;4.446;2023-05-02T02:00:44;11.70;99.90
23783;DHT22;12071;50.850;4.446;2023-05-02T02:03:11;11.70;99.90
23783;DHT22;12071;50.850;4.446;2023-05-02T02:05:39;11.60;99.90
23783;DHT22;12071;50.850;4.446;2023-05-02T02:08:05;11.80;99.90
23783;DHT22;12071;50.850;4.446;2023-05-02T02:10:39;11.70;99.90
23783;DHT22;12071;50.850;4.446;2023-05-02T02:13:13;11.60;99.90
23783;DHT22;12071;50.850;4.446;2023-05-02T02:15:41;11.80;99.90
23783;DHT22;12071;50.850;4.446;2023-05-02T02:18:12;11.60;99.90
23783;DHT22;12071;50.850;4.446;2023-05-02T02:20:43;11.70;99.90
23783;DHT22;12071;50.850;4.446;2023-05-02T02:23:10;11.80;99.90
23783;DHT22;12071;50.850;4.446;2023-05-02T02:25:38;11.80;99.90
23783;DHT22;12071;50.850;4.446;2023-05-02T02:28:04;11.60;99.90
23783;DHT22;12071;50.850;4.446;2023-05-02T02:30:30;11.50;99.90
23783;DHT22;12071;50.850;4.446;2023-05-02T02:32:55;11.30;99.90
23783;DHT22;12071;50.850;4.446;2023-05-02T02:35:22;11.20;99.90
23783;DHT22;12071;50.850;4.446;2023-05-02T02:37:56;11.10;1.00
23783;DHT22;12071;50.850;4.446;2023-05-02T02:43:42;11.30;1.00
23783;DHT22;12071;50.850;4.446;2023-05-02T02:46:27;11.50;99.90
23783;DHT22;12071;50.850;4.446;2023-05-02T02:51:38;11.60;99.90
23783;DHT22;12071;50.850;4.446;2023-05-02T02:57:17;11.50;99.90
23783;DHT22;12071;50.850;4.446;2023-05-02T03:00:11;11.30;99.90
23783;DHT22;12071;50.850;4.446;2023-05-02T03:02:39;11.60;99.90
23783;DHT22;12071;50.850;4.446;2023-05-02T03:05:06;11.60;99.90
23783;DHT22;12071;50.850;4.446;2023-05-02T03:07:34;11.70;99.90
23783;DHT22;12071;50.850;4.446;2023-05-02T03:10:03;11.80;99.90
23783;DHT22;12071;50.850;4.446;2023-05-02T03:12:29;11.60;99.90
23783;DHT22;12071;50.850;4.446;2023-05-02T03:17:47;11.40;99.90
23783;DHT22;12071;50.850;4.446;2023-05-02T03:20:13;11.30;99.90
23783;DHT22;12071;50.850;4.446;2023-05-02T03:22:39;11.30;99.90
23783;DHT22;12071;50.850;4.446;2023-05-02T03:25:04;11.10;99.90
23783;DHT22;12071;50.850;4.446;2023-05-02T03:27:30;11.10;99.90
23783;DHT22;12071;50.850;4.446;2023-05-02T03:29:56;11.20;1.00
23783;DHT22;12071;50.850;4.446;2023-05-02T03:32:22;11.30;99.90
23783;DHT22;12071;50.850;4.446;2023-05-02T03:34:47;11.30;99.90
23783;DHT22;12071;50.850;4.446;2023-05-02T03:37:13;11.40;99.90
23783;DHT22;12071;50.850;4.446;2023-05-02T03:39:39;11.30;99.90
23783;DHT22;12071;50.850;4.446;2023-05-02T03:42:05;11.00;99.90
23783;DHT22;12071;50.850;4.446;2023-05-02T03:44:31;10.90;99.90
23783;DHT22;12071;50.850;4.446;2023-05-02T03:46:56;10.80;1.00
23783;DHT22;12071;50.850;4.446;2023-05-02T03:49:22;10.80;1.00
23783;DHT22;12071;50.850;4.446;2023-05-02T03:51:48;10.70;1.00
23783;DHT22;12071;50.850;4.446;2023-05-02T03:54:13;10.90;1.00
23783;DHT22;12071;50.850;4.446;2023-05-02T03:56:39;11.10;1.00
23783;DHT22;12071;50.850;4.446;2023-05-02T03:59:05;11.10;1.00
23783;DHT22;12071;50.850;4.446;2023-05-02T04:01:31;11.00;99.90
23783;DHT22;12071;50.850;4.446;2023-05-02T04:03:57;10.90;1.00
23783;DHT22;12071;50.850;4.446;2023-05-02T04:06:22;10.90;1.00
23783;DHT22;12071;50.850;4.446;2023-05-02T04:08:48;11.10;1.00
23783;DHT22;12071;50.850;4.446;2023-05-02T04:11:14;11.00;1.00
23783;DHT22;12071;50.850;4.446;2023-05-02T04:13:40;10.80;1.00
23783;DHT22;12071;50.850;4.446;2023-05-02T04:16:06;10.90;1.00
23783;DHT22;12071;50.850;4.446;2023-05-02T04:18:31;11.20;1.00
23783;DHT22;12071;50.850;4.446;2023-05-02T04:20:57;11.60;99.90
23783;DHT22;12071;50.850;4.446;2023-05-02T04:23:23;11.70;99.90
23783;DHT22;12071;50.850;4.446;2023-05-02T04:25:53;11.40;99.90
23783;DHT22;12071;50.850;4.446;2023-05-02T04:28:20;11.50;99.90
23783;DHT22;12071;50.850;4.446;2023-05-02T04:30:47;11.60;99.90
23783;DHT22;12071;50.850;4.446;2023-05-02T04:33:13;11.90;99.90
23783;DHT22;12071;50.850;4.446;2023-05-02T04:35:40;11.60;99.90
23783;DHT22;12071;50.850;4.446;2023-05-02T04:38:06;11.70;99.90
23783;DHT22;12071;50.850;4.446;2023-05-02T04:40:32;11.60;99.90
23783;DHT22;12071;50.850;4.446;2023-05-02T04:42:58;11.60;99.90
23783;DHT22;12071;50.850;4.446;2023-05-02T04:45:24;11.70;99.90
23783;DHT22;12071;50.850;4.446;2023-05-02T04:47:50;11.60;99.90
23783;DHT22;12071;50.850;4.446;2023-05-02T04:50:16;11.60;99.90
23783;DHT22;12071;50.850;4.446;2023-05-02T04:52:42;11.70;99.90
23783;DHT22;12071;50.850;4.446;2023-05-02T04:55:08;11.80;99.90
23783;DHT22;12071;50.850;4.446;2023-05-02T04:57:33;12.00;99.90
23783;DHT22;12071;50.850;4.446;2023-05-02T04:59:59;12.10;99.90
23783;DHT22;12071;50.850;4.446;2023-05-02T05:02:25;12.20;99.90
23783;DHT22;12071;50.850;4.446;2023-05-02T05:04:51;12.00;99.90
23783;DHT22;12071;50.850;4.446;2023-05-02T05:07:17;11.70;99.90
23783;DHT22;12071;50.850;4.446;2023-05-02T05:09:43;11.90;99.90
23783;DHT22;12071;50.850;4.446;2023-05-02T05:12:09;11.60;99.90
23783;DHT22;12071;50.850;4.446;2023-05-02T05:14:35;11.40;99.90
23783;DHT22;12071;50.850;4.446;2023-05-02T05:17:01;11.30;99.90
23783;DHT22;12071;50.850;4.446;2023-05-02T05:19:26;11.30;99.90
23783;DHT22;12071;50.850;4.446;2023-05-02T05:21:52;11.30;99.90
23783;DHT22;12071;50.850;4.446;2023-05-02T05:24:18;11.20;99.90
23783;DHT22;12071;50.850;4.446;2023-05-02T05:26:43;11.30;99.90
23783;DHT22;12071;50.850;4.446;2023-05-02T05:29:09;11.10;1.00
23783;DHT22;12071;50.850;4.446;2023-05-02T05:31:36;11.10;1.00
23783;DHT22;12071;50.850;4.446;2023-05-02T05:34:01;11.00;1.00
23783;DHT22;12071;50.850;4.446;2023-05-02T05:36:29;11.20;1.00
23783;DHT22;12071;50.850;4.446;2023-05-02T05:38:56;11.10;99.90
23783;DHT22;12071;50.850;4.446;2023-05-02T05:41:21;11.10;1.00
23783;DHT22;12071;50.850;4.446;2023-05-02T05:43:49;11.10;1.00
23783;DHT22;12071;50.850;4.446;2023-05-02T05:46:14;11.20;1.00
23783;DHT22;12071;50.850;4.446;2023-05-02T05:48:40;11.20;99.90
23783;DHT22;12071;50.850;4.446;2023-05-02T05:51:06;11.20;1.00
23783;DHT22;12071;50.850;4.446;2023-05-02T05:53:32;11.30;99.90
23783;DHT22;12071;50.850;4.446;2023-05-02T05:55:58;11.30;1.00
23783;DHT22;12071;50.850;4.446;2023-05-02T05:58:24;11.50;99.90
23783;DHT22;12071;50.850;4.446;2023-05-02T06:00:50;11.70;99.90
23783;DHT22;12071;50.850;4.446;2023-05-02T06:03:16;11.70;99.90
23783;DHT22;12071;50.850;4.446;2023-05-02T06:05:42;11.70;99.90
23783;DHT22;12071;50.850;4.446;2023-05-02T06:08:07;11.70;99.90
23783;DHT22;12071;50.850;4.446;2023-05-02T06:10:33;11.90;99.90
23783;DHT22;12071;50.850;4.446;2023-05-02T06:12:59;11.80;99.90
23783;DHT22;12071;50.850;4.446;2023-05-02T06:15:25;11.70;99.90
23783;DHT22;12071;50.850;4.446;2023-05-02T06:17:51;11.80;99.90
23783;DHT22;12071;50.850;4.446;2023-05-02T06:20:17;11.90;99.90
23783;DHT22;12071;50.850;4.446;2023-05-02T06:22:42;12.00;99.90
23783;DHT22;12071;50.850;4.446;2023-05-02T06:25:08;12.30;99.90
23783;DHT22;12071;50.850;4.446;2023-05-02T06:27:34;12.30;99.90
23783;DHT22;12071;50.850;4.446;2023-05-02T06:30:00;12.20;99.90
23783;DHT22;12071;50.850;4.446;2023-05-02T06:32:32;12.40;99.90
23783;DHT22;12071;50.850;4.446;2023-05-02T06:34:58;12.40;99.90
23783;DHT22;12071;50.850;4.446;2023-05-02T06:37:24;12.60;99.90
23783;DHT22;12071;50.850;4.446;2023-05-02T06:39:50;12.50;99.90
23783;DHT22;12071;50.850;4.446;2023-05-02T06:42:15;12.10;99.90
23783;DHT22;12071;50.850;4.446;2023-05-02T06:44:41;11.90;99.90
23783;DHT22;12071;50.850;4.446;2023-05-02T06:47:06;11.90;99.90
23783;DHT22;12071;50.850;4.446;2023-05-02T06:49:32;12.00;99.90
23783;DHT22;12071;50.850;4.446;2023-05-02T06:51:58;12.20;99.90
23783;DHT22;12071;50.850;4.446;2023-05-02T06:54:24;12.30;99.90
23783;DHT22;12071;50.850;4.446;2023-05-02T06:56:50;12.80;99.90
23783;DHT22;12071;50.850;4.446;2023-05-02T06:59:16;12.80;99.90
23783;DHT22;12071;50.850;4.446;2023-05-02T07:01:45;12.80;99.90
23783;DHT22;12071;50.850;4.446;2023-05-02T07:04:11;12.60;99.90
23783;DHT22;12071;50.850;4.446;2023-05-02T07:06:37;13.00;99.90
23783;DHT22;12071;50.850;4.446;2023-05-02T07:09:02;13.30;99.90
23783;DHT22;12071;50.850;4.446;2023-05-02T07:11:28;13.30;56.70
23783;DHT22;12071;50.850;4.446;2023-05-02T07:13:54;13.20;1.00
23783;DHT22;12071;50.850;4.446;2023-05-02T07:16:19;13.40;11.80
23783;DHT22;12071;50.850;4.446;2023-05-02T07:18:45;13.20;1.00
23783;DHT22;12071;50.850;4.446;2023-05-02T07:21:11;13.40;1.00
23783;DHT22;12071;50.850;4.446;2023-05-02T07:23:37;13.20;1.00
23783;DHT22;12071;50.850;4.446;2023-05-02T07:26:03;13.30;1.00
23783;DHT22;12071;50.850;4.446;2023-05-02T07:28:32;13.40;1.00
23783;DHT22;12071;50.850;4.446;2023-05-02T07:30:58;13.20;99.90
23783;DHT22;12071;50.850;4.446;2023-05-02T07:33:23;13.30;1.00
23783;DHT22;12071;50.850;4.446;2023-05-02T07:35:49;13.50;99.90
23783;DHT22;12071;50.850;4.446;2023-05-02T07:38:15;13.70;95.70
23783;DHT22;12071;50.850;4.446;2023-05-02T07:40:41;13.80;1.00
23783;DHT22;12071;50.850;4.446;2023-05-02T07:43:08;14.10;99.90
23783;DHT22;12071;50.850;4.446;2023-05-02T07:45:34;14.10;1.00
23783;DHT22;12071;50.850;4.446;2023-05-02T07:48:00;14.10;1.00
23783;DHT22;12071;50.850;4.446;2023-05-02T07:50:26;14.20;1.00
23783;DHT22;12071;50.850;4.446;2023-05-02T07:52:54;13.90;1.00
23783;DHT22;12071;50.850;4.446;2023-05-02T07:55:20;13.60;25.30
23783;DHT22;12071;50.850;4.446;2023-05-02T07:57:46;13.30;99.90
23783;DHT22;12071;50.850;4.446;2023-05-02T08:00:12;13.10;99.90
23783;DHT22;12071;50.850;4.446;2023-05-02T08:02:40;13.50;99.90
23783;DHT22;12071;50.850;4.446;2023-05-02T08:05:06;13.70;99.90
23783;DHT22;12071;50.850;4.446;2023-05-02T08:07:32;13.90;1.00
23783;DHT22;12071;50.850;4.446;2023-05-02T08:10:00;13.80;9.80
23783;DHT22;12071;50.850;4.446;2023-05-02T08:12:26;13.70;35.00
23783;DHT22;12071;50.850;4.446;2023-05-02T08:14:52;13.40;99.90
23783;DHT22;12071;50.850;4.446;2023-05-02T08:17:18;13.00;1.00
23783;DHT22;12071;50.850;4.446;2023-05-02T08:19:43;12.60;1.00
23783;DHT22;12071;50.850;4.446;2023-05-02T08:22:09;12.80;99.90
23783;DHT22;12071;50.850;4.446;2023-05-02T08:24:35;13.00;56.00
23783;DHT22;12071;50.850;4.446;2023-05-02T08:27:01;13.20;1.00
23783;DHT22;12071;50.850;4.446;2023-05-02T08:29:30;13.40;99.90
23783;DHT22;12071;50.850;4.446;2023-05-02T08:31:56;13.90;99.90
23783;DHT22;12071;50.850;4.446;2023-05-02T08:34:21;14.10;99.90
23783;DHT22;12071;50.850;4.446;2023-05-02T08:36:47;14.30;99.90
23783;DHT22;12071;50.850;4.446;2023-05-02T08:39:13;14.40;1.00
23783;DHT22;12071;50.850;4.446;2023-05-02T08:41:39;14.40;99.90
23783;DHT22;12071;50.850;4.446;2023-05-02T08:44:05;14.70;99.90
23783;DHT22;12071;50.850;4.446;2023-05-02T08:46:34;15.00;99.90
23783;DHT22;12071;50.850;4.446;2023-05-02T08:49:02;15.20;99.90
23783;DHT22;12071;50.850;4.446;2023-05-02T08:51:29;15.40;62.00
23783;DHT22;12071;50.850;4.446;2023-05-02T08:53:57;15.50;1.00
23783;DHT22;12071;50.850;4.446;2023-05-02T08:56:24;15.80;99.90
23783;DHT22;12071;50.850;4.446;2023-05-02T08:58:50;15.80;99.90
23783;DHT22;12071;50.850;4.446;2023-05-02T09:01:17;15.40;99.90
23783;DHT22;12071;50.850;4.446;2023-05-02T09:03:45;15.10;99.90
23783;DHT22;12071;50.850;4.446;2023-05-02T09:08:40;15.20;57.60
23783;DHT22;12071;50.850;4.446;2023-05-02T09:11:07;14.90;99.90
23783;DHT22;12071;50.850;4.446;2023-05-02T09:13:47;15.30;99.90
23783;DHT22;12071;50.850;4.446;2023-05-02T09:16:15;15.30;99.90
23783;DHT22;12071;50.850;4.446;2023-05-02T09:18:46;15.20;99.90
23783;DHT22;12071;50.850;4.446;2023-05-02T09:23:42;14.80;99.90
23783;DHT22;12071;50.850;4.446;2023-05-02T09:26:14;14.80;99.20
23783;DHT22;12071;50.850;4.446;2023-05-02T09:28:43;14.70;18.90
23783;DHT22;12071;50.850;4.446;2023-05-02T09:31:13;14.70;1.00
23783;DHT22;12071;50.850;4.446;2023-05-02T09:33:40;14.70;63.40
23783;DHT22;12071;50.850;4.446;2023-05-02T09:36:08;14.80;4.10
23783;DHT22;12071;50.850;4.446;2023-05-02T09:38:34;14.60;11.90
23783;DHT22;12071;50.850;4.446;2023-05-02T09:41:00;14.70;99.90
23783;DHT22;12071;50.850;4.446;2023-05-02T09:43:28;14.90;72.20
23783;DHT22;12071;50.850;4.446;2023-05-02T09:45:58;14.90;49.60
23783;DHT22;12071;50.850;4.446;2023-05-02T09:48:25;14.40;3.40
23783;DHT22;12071;50.850;4.446;2023-05-02T09:50:55;14.30;30.20
23783;DHT22;12071;50.850;4.446;2023-05-02T09:53:20;14.60;99.90
23783;DHT22;12071;50.850;4.446;2023-05-02T09:56:04;14.80;57.40
23783;DHT22;12071;50.850;4.446;2023-05-02T09:58:32;14.80;99.90
23783;DHT22;12071;50.850;4.446;2023-05-02T10:00:58;14.50;1.00
23783;DHT22;12071;50.850;4.446;2023-05-02T10:03:26;14.30;1.00
23783;DHT22;12071;50.850;4.446;2023-05-02T10:05:53;14.40;21.20
23783;DHT22;12071;50.850;4.446;2023-05-02T10:08:24;14.30;43.90
23783;DHT22;12071;50.850;4.446;2023-05-02T10:10:56;14.40;1.00
23783;DHT22;12071;50.850;4.446;2023-05-02T10:13:26;14.70;32.20
23783;DHT22;12071;50.850;4.446;2023-05-02T10:16:01;15.20;1.00
23783;DHT22;12071;50.850;4.446;2023-05-02T10:18:51;15.70;1.00
23783;DHT22;12071;50.850;4.446;2023-05-02T10:21:24;16.20;1.00
23783;DHT22;12071;50.850;4.446;2023-05-02T10:23:54;16.50;99.90
23783;DHT22;12071;50.850;4.446;2023-05-02T10:26:22;16.40;99.90
23783;DHT22;12071;50.850;4.446;2023-05-02T10:28:49;16.20;98.30
23783;DHT22;12071;50.850;4.446;2023-05-02T10:31:17;15.90;19.80
23783;DHT22;12071;50.850;4.446;2023-05-02T10:33:43;15.30;1.00
23783;DHT22;12071;50.850;4.446;2023-05-02T10:36:11;15.10;29.10
23783;DHT22;12071;50.850;4.446;2023-05-02T10:38:42;15.80;88.00
23783;DHT22;12071;50.850;4.446;2023-05-02T10:41:23;16.00;2.90
23783;DHT22;12071;50.850;4.446;2023-05-02T10:43:52;16.10;14.10
23783;DHT22;12071;50.850;4.446;2023-05-02T10:51:35;16.50;1.00
23783;DHT22;12071;50.850;4.446;2023-05-02T10:59:41;16.40;1.00
23783;DHT22;12071;50.850;4.446;2023-05-02T11:05:04;15.90;1.00
23783;DHT22;12071;50.850;4.446;2023-05-02T11:07:35;16.00;1.00
23783;DHT22;12071;50.850;4.446;2023-05-02T11:15:12;17.30;1.00
23783;DHT22;12071;50.850;4.446;2023-05-02T11:18:09;17.30;99.90
23783;DHT22;12071;50.850;4.446;2023-05-02T11:20:47;17.20;99.90
23783;DHT22;12071;50.850;4.446;2023-05-02T11:25:42;17.70;1.00
23783;DHT22;12071;50.850;4.446;2023-05-02T11:36:32;16.60;99.90
23783;DHT22;12071;50.850;4.446;2023-05-02T11:39:02;16.80;99.90
23783;DHT22;12071;50.850;4.446;2023-05-02T11:44:05;17.20;99.90
23783;DHT22;12071;50.850;4.446;2023-05-02T11:46:31;16.80;99.90
23783;DHT22;12071;50.850;4.446;2023-05-02T11:48:57;17.10;99.90
23783;DHT22;12071;50.850;4.446;2023-05-02T11:51:23;17.00;99.90
23783;DHT22;12071;50.850;4.446;2023-05-02T11:53:48;17.40;99.90
23783;DHT22;12071;50.850;4.446;2023-05-02T11:56:14;18.10;99.90
23783;DHT22;12071;50.850;4.446;2023-05-02T11:58:41;18.40;99.90
23783;DHT22;12071;50.850;4.446;2023-05-02T12:01:15;18.30;99.90
23783;DHT22;12071;50.850;4.446;2023-05-02T12:03:44;17.90;99.90
23783;DHT22;12071;50.850;4.446;2023-05-02T12:06:19;17.60;99.90
23783;DHT22;12071;50.850;4.446;2023-05-02T12:08:45;17.20;99.90
23783;DHT22;12071;50.850;4.446;2023-05-02T12:11:15;17.30;99.90
23783;DHT22;12071;50.850;4.446;2023-05-02T12:13:48;17.30;99.90
23783;DHT22;12071;50.850;4.446;2023-05-02T12:16:17;17.60;99.90
23783;DHT22;12071;50.850;4.446;2023-05-02T12:18:44;17.90;99.90
23783;DHT22;12071;50.850;4.446;2023-05-02T12:21:12;18.00;99.90
23783;DHT22;12071;50.850;4.446;2023-05-02T12:23:38;18.10;99.90
23783;DHT22;12071;50.850;4.446;2023-05-02T12:26:36;18.20;99.90
23783;DHT22;12071;50.850;4.446;2023-05-02T12:29:01;18.00;99.90
23783;DHT22;12071;50.850;4.446;2023-05-02T12:31:27;18.10;99.90
23783;DHT22;12071;50.850;4.446;2023-05-02T12:33:59;18.60;99.90
23783;DHT22;12071;50.850;4.446;2023-05-02T12:36:26;18.50;99.90
23783;DHT22;12071;50.850;4.446;2023-05-02T12:38:56;18.10;99.90
23783;DHT22;12071;50.850;4.446;2023-05-02T12:41:37;17.40;99.90
23783;DHT22;12071;50.850;4.446;2023-05-02T12:44:05;17.00;99.90
23783;DHT22;12071;50.850;4.446;2023-05-02T12:46:31;17.40;99.90
23783;DHT22;12071;50.850;4.446;2023-05-02T12:49:08;17.70;99.90
23783;DHT22;12071;50.850;4.446;2023-05-02T12:51:35;17.90;99.90
23783;DHT22;12071;50.850;4.446;2023-05-02T12:54:01;18.10;99.90
23783;DHT22;12071;50.850;4.446;2023-05-02T12:56:27;18.00;99.90
23783;DHT22;12071;50.850;4.446;2023-05-02T12:58:57;18.00;99.90
23783;DHT22;12071;50.850;4.446;2023-05-02T13:01:26;17.90;99.90
23783;DHT22;12071;50.850;4.446;2023-05-02T13:03:54;17.60;99.90
23783;DHT22;12071;50.850;4.446;2023-05-02T13:06:20;17.30;99.90
23783;DHT22;12071;50.850;4.446;2023-05-02T13:09:00;17.20;99.90
23783;DHT22;12071;50.850;4.446;2023-05-02T13:11:26;17.50;99.90
23783;DHT22;12071;50.850;4.446;2023-05-02T13:13:52;17.70;99.90
23783;DHT22;12071;50.850;4.446;2023-05-02T13:16:18;17.90;99.90
23783;DHT22;12071;50.850;4.446;2023-05-02T13:18:43;18.30;99.90
23783;DHT22;12071;50.850;4.446;2023-05-02T13:21:10;18.40;99.90
23783;DHT22;12071;50.850;4.446;2023-05-02T13:23:35;18.10;63.90
23783;DHT22;12071;50.850;4.446;2023-05-02T13:26:01;18.70;99.90
23783;DHT22;12071;50.850;4.446;2023-05-02T13:28:26;19.10;44.20
23783;DHT22;12071;50.850;4.446;2023-05-02T13:30:54;19.40;25.10
23783;DHT22;12071;50.850;4.446;2023-05-02T13:33:20;20.00;16.20
23783;DHT22;12071;50.850;4.446;2023-05-02T13:35:46;21.60;4.40
23783;DHT22;12071;50.850;4.446;2023-05-02T13:38:12;22.50;1.00
23783;DHT22;12071;50.850;4.446;2023-05-02T13:40:37;23.00;1.00
23783;DHT22;12071;50.850;4.446;2023-05-02T13:43:03;23.70;1.00
23783;DHT22;12071;50.850;4.446;2023-05-02T13:45:29;24.20;1.00
23783;DHT22;12071;50.850;4.446;2023-05-02T13:47:55;24.30;1.00
23783;DHT22;12071;50.850;4.446;2023-05-02T13:50:21;24.30;1.00
23783;DHT22;12071;50.850;4.446;2023-05-02T13:52:50;25.70;1.00
23783;DHT22;12071;50.850;4.446;2023-05-02T13:55:19;26.00;1.00
23783;DHT22;12071;50.850;4.446;2023-05-02T13:57:48;25.20;1.00
23783;DHT22;12071;50.850;4.446;2023-05-02T14:00:14;25.00;1.00
23783;DHT22;12071;50.850;4.446;2023-05-02T14:02:42;24.80;1.00
23783;DHT22;12071;50.850;4.446;2023-05-02T14:05:10;26.10;1.00
23783;DHT22;12071;50.850;4.446;2023-05-02T14:07:39;25.80;99.90
23783;DHT22;12071;50.850;4.446;2023-05-02T14:10:06;24.40;99.90
23783;DHT22;12071;50.850;4.446;2023-05-02T14:12:32;25.10;99.90
23783;DHT22;12071;50.850;4.446;2023-05-02T14:14:57;26.20;99.90
23783;DHT22;12071;50.850;4.446;2023-05-02T14:17:23;26.80;99.90
23783;DHT22;12071;50.850;4.446;2023-05-02T14:19:50;26.60;99.90
23783;DHT22;12071;50.850;4.446;2023-05-02T14:22:16;25.60;99.90
23783;DHT22;12071;50.850;4.446;2023-05-02T14:24:42;27.00;99.90
23783;DHT22;12071;50.850;4.446;2023-05-02T14:27:08;26.80;99.90
23783;DHT22;12071;50.850;4.446;2023-05-02T14:29:45;26.40;99.90
23783;DHT22;12071;50.850;4.446;2023-05-02T14:32:12;26.30;99.90
23783;DHT22;12071;50.850;4.446;2023-05-02T14:34:38;24.20;99.90
23783;DHT22;12071;50.850;4.446;2023-05-02T14:37:03;22.80;99.90
23783;DHT22;12071;50.850;4.446;2023-05-02T14:39:32;24.50;99.90
23783;DHT22;12071;50.850;4.446;2023-05-02T14:42:00;25.80;99.90
23783;DHT22;12071;50.850;4.446;2023-05-02T14:44:29;26.30;99.90
23783;DHT22;12071;50.850;4.446;2023-05-02T14:46:55;25.80;99.90
23783;DHT22;12071;50.850;4.446;2023-05-02T14:49:23;24.90;99.90
23783;DHT22;12071;50.850;4.446;2023-05-02T14:51:50;24.90;99.90
23783;DHT22;12071;50.850;4.446;2023-05-02T14:54:16;24.60;99.90
23783;DHT22;12071;50.850;4.446;2023-05-02T14:56:42;23.80;99.90
23783;DHT22;12071;50.850;4.446;2023-05-02T14:59:08;25.50;99.90
23783;DHT22;12071;50.850;4.446;2023-05-02T15:01:36;26.40;99.90
23783;DHT22;12071;50.850;4.446;2023-05-02T15:04:02;26.40;99.90
23783;DHT22;12071;50.850;4.446;2023-05-02T15:06:31;27.20;99.90
23783;DHT22;12071;50.850;4.446;2023-05-02T15:08:57;27.00;99.90
23783;DHT22;12071;50.850;4.446;2023-05-02T15:11:23;26.50;99.90
23783;DHT22;12071;50.850;4.446;2023-05-02T15:13:48;26.80;99.90
23783;DHT22;12071;50.850;4.446;2023-05-02T15:16:14;28.40;99.90
23783;DHT22;12071;50.850;4.446;2023-05-02T15:18:40;27.40;99.90
23783;DHT22;12071;50.850;4.446;2023-05-02T15:21:06;27.60;99.90
23783;DHT22;12071;50.850;4.446;2023-05-02T15:23:32;27.20;99.90
23783;DHT22;12071;50.850;4.446;2023-05-02T15:26:00;25.90;99.90
23783;DHT22;12071;50.850;4.446;2023-05-02T15:28:26;26.40;99.90
23783;DHT22;12071;50.850;4.446;2023-05-02T15:30:52;27.70;99.90
23783;DHT22;12071;50.850;4.446;2023-05-02T15:33:18;27.70;99.90
23783;DHT22;12071;50.850;4.446;2023-05-02T15:35:55;27.90;99.90
23783;DHT22;12071;50.850;4.446;2023-05-02T15:38:24;28.60;99.90
23783;DHT22;12071;50.850;4.446;2023-05-02T15:40:54;27.80;99.90
23783;DHT22;12071;50.850;4.446;2023-05-02T15:43:21;27.80;99.90
23783;DHT22;12071;50.850;4.446;2023-05-02T15:45:54;27.90;99.90
23783;DHT22;12071;50.850;4.446;2023-05-02T15:48:20;28.00;99.90
23783;DHT22;12071;50.850;4.446;2023-05-02T15:50:47;28.20;99.90
23783;DHT22;12071;50.850;4.446;2023-05-02T15:53:14;28.50;99.90
23783;DHT22;12071;50.850;4.446;2023-05-02T15:55:41;29.30;99.90
23783;DHT22;12071;50.850;4.446;2023-05-02T15:58:17;27.60;99.90
23783;DHT22;12071;50.850;4.446;2023-05-02T16:00:44;27.50;99.90
23783;DHT22;12071;50.850;4.446;2023-05-02T16:03:13;28.60;99.90
23783;DHT22;12071;50.850;4.446;2023-05-02T16:05:39;29.20;99.90
23783;DHT22;12071;50.850;4.446;2023-05-02T16:08:05;28.40;99.90
23783;DHT22;12071;50.850;4.446;2023-05-02T16:10:31;29.10;99.90
23783;DHT22;12071;50.850;4.446;2023-05-02T16:12:57;29.30;99.90
23783;DHT22;12071;50.850;4.446;2023-05-02T16:15:26;28.40;99.90
23783;DHT22;12071;50.850;4.446;2023-05-02T16:17:53;28.30;99.90
23783;DHT22;12071;50.850;4.446;2023-05-02T16:20:18;28.00;99.90
23783;DHT22;12071;50.850;4.446;2023-05-02T16:22:45;28.80;99.90
23783;DHT22;12071;50.850;4.446;2023-05-02T16:25:15;27.80;99.90
23783;DHT22;12071;50.850;4.446;2023-05-02T16:27:41;28.20;99.90
23783;DHT22;12071;50.850;4.446;2023-05-02T16:30:08;28.50;99.90
23783;DHT22;12071;50.850;4.446;2023-05-02T16:32:34;28.30;99.90
23783;DHT22;12071;50.850;4.446;2023-05-02T16:35:05;28.70;99.90
23783;DHT22;12071;50.850;4.446;2023-05-02T16:37:33;28.60;99.90
23783;DHT22;12071;50.850;4.446;2023-05-02T16:39:59;27.70;99.90